Time;durP1;ratioP1;P1;durP2;ratioP2;P2;SDS_P1;SDS_P2;PMS_P1;PMS_P2;Temp;Humidity;BMP_temperature;BMP_pressure;BME280_temperature;BME280_humidity;BME280_pressure;Samples;Min_cycle;Max_cycle;Signal;HPM_P1;HPM_P2
2022/07/09 00:00:04;;;;;;;8.50;7.63;;;16.80;99.90;;;;;;5050535;28;20670;-69
2022/07/09 00:02:30;;;;;;;8.30;7.00;;;16.80;99.90;;;;;;5050939;28;20206;-69
2022/07/09 00:04:56;;;;;;;7.50;6.77;;;16.80;99.90;;;;;;5050464;28;20281;-69
2022/07/09 00:07:21;;;;;;;7.77;7.07;;;16.80;99.90;;;;;;5051993;28;20184;-69
2022/07/09 00:09:47;;;;;;;7.53;6.90;;;16.80;99.90;;;;;;5050388;28;20643;-69
2022/07/09 00:12:12;;;;;;;7.43;6.87;;;16.80;99.90;;;;;;5050554;28;20205;-69
2022/07/09 00:14:38;;;;;;;8.47;7.67;;;16.70;99.90;;;;;;5051508;28;20202;-69
2022/07/09 00:17:04;;;;;;;8.97;8.17;;;16.70;99.90;;;;;;5050976;28;20179;-69
2022/07/09 00:19:30;;;;;;;8.80;7.37;;;16.70;99.90;;;;;;5051703;28;20202;-69
2022/07/09 00:21:55;;;;;;;9.37;7.90;;;16.70;99.90;;;;;;5050355;28;20273;-69
2022/07/09 00:24:21;;;;;;;7.33;6.83;;;16.60;99.90;;;;;;5050059;28;20191;-69
2022/07/09 00:26:46;;;;;;;8.33;7.53;;;16.50;99.90;;;;;;5051919;28;20187;-69
2022/07/09 00:29:12;;;;;;;14.40;8.20;;;16.50;99.90;;;;;;5051435;28;20227;-68
2022/07/09 00:31:38;;;;;;;8.33;7.03;;;16.60;99.90;;;;;;5051874;28;20170;-70
2022/07/09 00:34:03;;;;;;;10.10;8.13;;;16.50;99.90;;;;;;5049820;28;20210;-69
2022/07/09 00:36:29;;;;;;;9.53;8.03;;;16.50;99.90;;;;;;5051559;28;20171;-69
2022/07/09 00:38:55;;;;;;;8.67;7.60;;;16.50;99.90;;;;;;5051245;28;20703;-69
2022/07/09 00:41:20;;;;;;;11.50;9.07;;;16.50;99.90;;;;;;5051453;28;20182;-70
2022/07/09 00:43:49;;;;;;;9.47;7.70;;;16.40;99.90;;;;;;5050806;28;20576;-68
2022/07/09 00:46:16;;;;;;;8.87;7.97;;;16.40;99.90;;;;;;5051260;28;20228;-69
2022/07/09 00:48:42;;;;;;;10.83;9.70;;;16.40;99.90;;;;;;5051188;28;20644;-69
2022/07/09 00:51:08;;;;;;;10.03;9.13;;;16.40;99.90;;;;;;5051347;28;20184;-69
2022/07/09 00:53:34;;;;;;;9.57;8.67;;;16.40;99.90;;;;;;5049479;28;20206;-69
2022/07/09 00:56:01;;;;;;;11.33;9.50;;;16.40;99.90;;;;;;5051267;28;20532;-68
2022/07/09 00:58:27;;;;;;;9.33;8.33;;;16.40;99.90;;;;;;5051001;28;20237;-69
2022/07/09 01:00:54;;;;;;;10.47;9.10;;;16.40;99.90;;;;;;5051354;28;20177;-69
2022/07/09 01:03:20;;;;;;;13.30;10.00;;;16.30;99.90;;;;;;5050809;28;20553;-69
2022/07/09 01:05:45;;;;;;;10.73;9.77;;;16.30;99.90;;;;;;5050989;28;20219;-69
2022/07/09 01:08:11;;;;;;;11.20;9.13;;;16.20;99.90;;;;;;5049506;28;20258;-69
2022/07/09 01:10:37;;;;;;;12.80;10.17;;;16.20;99.90;;;;;;5051281;28;20193;-69
2022/07/09 01:13:04;;;;;;;10.23;9.27;;;16.10;99.90;;;;;;5050747;28;20206;-68
2022/07/09 01:15:30;;;;;;;11.27;9.50;;;16.10;99.90;;;;;;5050736;28;20242;-69
2022/07/09 01:17:57;;;;;;;11.13;10.10;;;16.10;99.90;;;;;;5050926;28;20186;-69
2022/07/09 01:20:26;;;;;;;12.60;11.27;;;16.10;99.90;;;;;;5051099;28;20253;-69
2022/07/09 01:22:53;;;;;;;11.30;10.13;;;16.10;99.90;;;;;;5050765;28;20256;-69
2022/07/09 01:25:19;;;;;;;11.90;10.77;;;16.10;99.90;;;;;;5050472;28;20190;-69
2022/07/09 01:27:46;;;;;;;12.30;11.20;;;16.10;99.90;;;;;;5051720;28;20524;-68
2022/07/09 01:30:23;;;;;;;14.10;10.97;;;16.10;99.90;;;;;;5054576;28;20186;-70
2022/07/09 01:32:49;;;;;;;12.80;11.60;;;16.00;99.90;;;;;;5054871;28;20171;-68
2022/07/09 01:35:14;;;;;;;13.00;11.43;;;16.00;99.90;;;;;;5053697;28;20723;-69
2022/07/09 01:37:40;;;;;;;12.80;11.47;;;16.00;99.90;;;;;;5054721;28;20171;-69
2022/07/09 01:40:06;;;;;;;13.20;11.87;;;16.00;99.90;;;;;;5053246;28;20530;-70
2022/07/09 01:42:32;;;;;;;14.10;12.43;;;16.00;99.90;;;;;;5053244;28;20225;-69
2022/07/09 01:44:57;;;;;;;13.40;10.93;;;16.00;99.90;;;;;;5053988;28;20222;-69
2022/07/09 01:47:23;;;;;;;12.80;10.83;;;16.00;99.90;;;;;;5053388;28;20625;-68
2022/07/09 01:49:48;;;;;;;13.27;11.03;;;15.90;99.90;;;;;;5054413;28;20175;-69
2022/07/09 01:52:14;;;;;;;12.53;11.57;;;15.90;99.90;;;;;;5053177;28;20189;-69
2022/07/09 01:54:40;;;;;;;11.70;10.63;;;15.90;99.90;;;;;;5054024;28;20274;-68
2022/07/09 01:57:06;;;;;;;13.70;12.37;;;15.90;99.90;;;;;;5054366;28;20174;-69
2022/07/09 01:59:31;;;;;;;12.73;11.53;;;15.90;99.90;;;;;;5054417;28;20235;-68
2022/07/09 02:01:57;;;;;;;14.23;12.87;;;15.90;99.90;;;;;;5053035;28;20175;-69
2022/07/09 02:04:23;;;;;;;12.90;11.53;;;15.90;99.90;;;;;;5053635;28;20205;-70
2022/07/09 02:06:48;;;;;;;11.80;10.80;;;16.00;99.90;;;;;;5054390;28;20531;-70
2022/07/09 02:09:14;;;;;;;12.20;11.00;;;15.90;99.90;;;;;;5054021;28;20209;-69
2022/07/09 02:11:40;;;;;;;12.40;11.20;;;16.00;99.90;;;;;;5034243;28;20269;-68
2022/07/09 02:14:05;;;;;;;12.33;10.87;;;16.00;99.90;;;;;;5033793;28;20202;-69
2022/07/09 02:16:31;;;;;;;11.93;10.37;;;16.00;99.90;;;;;;5053789;28;20659;-69
2022/07/09 02:18:56;;;;;;;11.60;10.57;;;16.00;99.90;;;;;;5054132;28;20659;-69
2022/07/09 02:21:22;;;;;;;11.27;10.37;;;16.00;99.90;;;;;;5052564;28;20464;-69
2022/07/09 02:23:48;;;;;;;11.80;10.80;;;16.00;99.90;;;;;;5052263;28;20221;-69
2022/07/09 02:26:14;;;;;;;11.93;10.70;;;16.00;99.90;;;;;;5053466;28;20591;-69
2022/07/09 02:28:41;;;;;;;11.10;10.13;;;16.00;99.90;;;;;;5052633;28;20171;-68
2022/07/09 02:31:07;;;;;;;12.83;11.53;;;16.10;99.90;;;;;;5053543;28;20203;-69
2022/07/09 02:33:33;;;;;;;10.67;9.77;;;16.10;99.90;;;;;;5053162;28;20226;-69
2022/07/09 02:35:59;;;;;;;16.63;11.00;;;16.20;99.90;;;;;;5052645;28;20678;-69
2022/07/09 02:38:25;;;;;;;12.90;10.80;;;16.30;99.90;;;;;;5051428;28;20174;-69
2022/07/09 02:40:50;;;;;;;12.20;10.00;;;16.30;99.90;;;;;;5052172;28;20273;-69
2022/07/09 02:43:16;;;;;;;10.97;9.90;;;16.40;99.90;;;;;;5053200;28;20215;-69
2022/07/09 02:45:41;;;;;;;11.60;10.50;;;16.40;99.90;;;;;;5053312;28;20167;-70
2022/07/09 02:48:07;;;;;;;11.07;9.97;;;16.50;99.90;;;;;;5051909;28;20220;-68
2022/07/09 02:50:32;;;;;;;11.97;10.00;;;16.50;99.90;;;;;;5053527;28;20209;-68
2022/07/09 02:52:58;;;;;;;12.67;9.57;;;16.50;99.90;;;;;;5051852;28;20741;-69
2022/07/09 02:55:24;;;;;;;11.33;9.63;;;16.60;99.90;;;;;;5051874;28;20175;-70
2022/07/09 02:57:49;;;;;;;10.13;9.13;;;16.70;99.90;;;;;;5053157;28;20257;-68
2022/07/09 03:00:15;;;;;;;11.70;10.73;;;16.70;99.90;;;;;;5053143;28;20254;-68
2022/07/09 03:02:40;;;;;;;10.60;9.60;;;16.80;99.90;;;;;;5053222;28;20203;-69
2022/07/09 03:05:06;;;;;;;13.77;8.80;;;16.80;99.90;;;;;;5052702;28;20194;-70
2022/07/09 03:07:32;;;;;;;13.00;9.53;;;16.90;99.90;;;;;;5053018;28;20175;-69
2022/07/09 03:09:58;;;;;;;10.67;9.93;;;16.90;99.90;;;;;;5053080;28;20177;-69
2022/07/09 03:12:23;;;;;;;11.13;10.03;;;16.90;99.90;;;;;;5052923;28;20526;-69
2022/07/09 03:14:49;;;;;;;10.60;9.07;;;16.90;99.90;;;;;;5051459;28;20198;-69
2022/07/09 03:17:14;;;;;;;9.57;8.77;;;16.80;99.90;;;;;;5051463;28;20182;-69
2022/07/09 03:19:40;;;;;;;10.37;9.47;;;16.80;99.90;;;;;;5051971;28;20640;-68
2022/07/09 03:22:05;;;;;;;10.60;9.73;;;16.70;99.90;;;;;;5052441;28;20182;-69
2022/07/09 03:24:31;;;;;;;11.83;10.63;;;16.70;99.90;;;;;;5051072;28;20297;-69
2022/07/09 03:26:57;;;;;;;10.97;9.90;;;16.70;99.90;;;;;;5052535;28;20175;-69
2022/07/09 03:29:22;;;;;;;10.57;9.77;;;16.60;99.90;;;;;;5051615;28;20236;-70
2022/07/09 03:31:48;;;;;;;12.53;11.30;;;16.50;99.90;;;;;;5051138;28;20190;-68
2022/07/09 03:34:14;;;;;;;10.73;9.77;;;16.40;99.90;;;;;;5052121;28;20256;-69
2022/07/09 03:36:41;;;;;;;10.90;9.90;;;16.40;99.90;;;;;;5052418;28;20536;-68
2022/07/09 03:39:06;;;;;;;10.97;10.07;;;16.30;99.90;;;;;;5052535;28;20167;-69
2022/07/09 03:41:32;;;;;;;10.27;9.17;;;16.30;99.90;;;;;;5052363;28;20186;-68
2022/07/09 03:43:58;;;;;;;12.73;10.40;;;16.10;99.90;;;;;;5052007;28;20611;-68
2022/07/09 03:46:24;;;;;;;11.10;10.10;;;16.10;99.90;;;;;;5050932;28;20663;-69
2022/07/09 03:48:50;;;;;;;11.10;10.10;;;16.00;99.90;;;;;;5052563;28;20170;-69
2022/07/09 03:51:16;;;;;;;11.77;10.57;;;15.90;99.90;;;;;;5050483;28;20592;-69
2022/07/09 03:53:41;;;;;;;10.87;9.97;;;15.90;99.90;;;;;;5051948;28;20278;-70
2022/07/09 03:56:07;;;;;;;12.37;10.43;;;15.80;99.90;;;;;;5051902;28;20262;-68
2022/07/09 03:58:33;;;;;;;14.90;10.60;;;15.80;99.90;;;;;;5051861;28;20595;-68
2022/07/09 04:00:58;;;;;;;12.57;11.27;;;15.80;99.90;;;;;;5051954;28;20186;-69
2022/07/09 04:03:24;;;;;;;13.03;10.20;;;15.70;99.90;;;;;;5051776;28;20210;-69
2022/07/09 04:05:49;;;;;;;11.27;10.10;;;15.70;99.90;;;;;;5052015;28;20185;-70
2022/07/09 04:08:15;;;;;;;11.40;10.23;;;15.60;99.90;;;;;;5051681;28;20194;-68
2022/07/09 04:10:41;;;;;;;12.33;10.63;;;15.60;99.90;;;;;;5052015;28;20171;-69
2022/07/09 04:13:06;;;;;;;12.03;10.93;;;15.60;99.90;;;;;;5050380;28;20185;-69
2022/07/09 04:15:32;;;;;;;12.73;10.10;;;15.60;99.90;;;;;;5051417;28;20210;-69
2022/07/09 04:17:58;;;;;;;11.83;10.63;;;15.60;99.90;;;;;;5051711;28;20607;-69
2022/07/09 04:20:25;;;;;;;11.37;10.17;;;15.60;99.90;;;;;;5051598;28;20652;-68
2022/07/09 04:22:51;;;;;;;12.90;11.17;;;15.60;99.90;;;;;;5051731;28;20198;-69
2022/07/09 04:25:17;;;;;;;12.30;11.10;;;15.70;99.90;;;;;;5051395;28;20660;-68
2022/07/09 04:27:42;;;;;;;12.80;11.30;;;15.70;99.90;;;;;;5050394;28;20202;-68
2022/07/09 04:30:09;;;;;;;16.47;11.07;;;15.70;99.90;;;;;;5050055;28;20258;-68
2022/07/09 04:32:34;;;;;;;12.43;10.63;;;15.80;99.90;;;;;;5051577;28;20175;-69
2022/07/09 04:35:00;;;;;;;11.83;10.77;;;15.80;99.90;;;;;;5051311;28;20233;-70
2022/07/09 04:37:25;;;;;;;13.03;11.00;;;15.90;99.90;;;;;;5050277;28;20175;-71
2022/07/09 04:39:51;;;;;;;11.70;10.33;;;15.90;99.90;;;;;;5051233;28;20265;-71
2022/07/09 04:42:17;;;;;;;11.30;10.30;;;16.00;99.90;;;;;;5050018;28;20210;-70
2022/07/09 04:44:43;;;;;;;11.17;9.93;;;16.10;99.90;;;;;;5050955;28;20205;-70
2022/07/09 04:47:09;;;;;;;12.00;11.00;;;16.20;99.90;;;;;;5050128;28;20563;-71
2022/07/09 04:49:35;;;;;;;11.57;10.23;;;16.30;99.90;;;;;;5051189;28;20178;-71
2022/07/09 04:52:01;;;;;;;11.77;10.50;;;16.40;99.90;;;;;;5051203;28;20194;-71
2022/07/09 04:54:26;;;;;;;10.60;9.63;;;16.50;99.90;;;;;;5050623;28;20276;-71
2022/07/09 04:56:52;;;;;;;10.43;9.53;;;16.40;99.90;;;;;;5051428;28;20309;-70
2022/07/09 04:59:17;;;;;;;11.33;10.33;;;16.50;99.90;;;;;;5051076;28;20527;-70
2022/07/09 05:01:43;;;;;;;11.67;10.43;;;16.60;99.90;;;;;;5050199;28;20171;-70
2022/07/09 05:04:08;;;;;;;12.97;9.90;;;16.80;99.90;;;;;;5054710;28;20290;-70
2022/07/09 05:06:34;;;;;;;13.67;10.30;;;16.90;99.90;;;;;;5055420;28;20597;-71
2022/07/09 05:09:00;;;;;;;13.87;9.67;;;17.20;99.90;;;;;;5053847;28;20324;-71
2022/07/09 05:11:25;;;;;;;11.57;9.87;;;17.50;99.90;;;;;;5055088;28;20163;-70
2022/07/09 05:13:51;;;;;;;11.47;10.30;;;17.70;99.90;;;;;;5054986;28;20199;-71
2022/07/09 05:16:17;;;;;;;11.03;9.90;;;17.90;99.90;;;;;;5055000;28;20179;-71
2022/07/09 05:18:42;;;;;;;10.47;9.47;;;18.10;99.90;;;;;;5055187;28;20171;-70
2022/07/09 05:21:08;;;;;;;10.23;9.30;;;18.30;99.90;;;;;;5054855;28;20182;-71
2022/07/09 05:23:34;;;;;;;11.13;9.87;;;18.50;99.90;;;;;;5054734;28;20207;-71
2022/07/09 05:26:00;;;;;;;12.20;10.20;;;18.70;99.90;;;;;;5054901;28;20183;-70
2022/07/09 05:28:26;;;;;;;14.13;10.40;;;18.90;99.90;;;;;;5054552;28;20166;-70
2022/07/09 05:30:51;;;;;;;11.37;10.27;;;19.20;99.90;;;;;;5053077;28;20181;-70
2022/07/09 05:33:19;;;;;;;12.93;10.83;;;19.30;99.90;;;;;;5054661;28;20348;-71
2022/07/09 05:35:44;;;;;;;11.97;9.97;;;19.40;99.90;;;;;;5054700;28;20240;-70
2022/07/09 05:38:10;;;;;;;12.47;11.27;;;19.60;99.90;;;;;;5055172;28;20648;-71
2022/07/09 05:40:35;;;;;;;13.80;11.50;;;19.40;99.90;;;;;;5055151;28;20179;-71
2022/07/09 05:43:01;;;;;;;12.37;11.37;;;19.30;99.90;;;;;;5051997;28;20249;-71
2022/07/09 05:45:27;;;;;;;12.37;11.03;;;19.20;99.90;;;;;;5053400;28;20179;-70
2022/07/09 05:47:52;;;;;;;12.40;10.93;;;19.10;99.90;;;;;;5053540;28;20185;-70
2022/07/09 05:50:18;;;;;;;12.23;11.13;;;19.10;99.90;;;;;;5054476;28;20269;-71
2022/07/09 05:52:44;;;;;;;14.77;11.70;;;19.20;99.90;;;;;;5053773;28;20702;-69
2022/07/09 05:55:10;;;;;;;12.37;11.17;;;19.50;99.90;;;;;;5052247;28;20286;-69
2022/07/09 05:57:36;;;;;;;13.43;12.30;;;19.90;99.90;;;;;;5054023;28;20257;-69
2022/07/09 06:00:04;;;;;;;12.90;11.70;;;20.30;99.90;;;;;;5054205;28;20200;-70
2022/07/09 06:02:30;;;;;;;13.17;12.00;;;20.80;99.90;;;;;;5052792;28;20212;-69
2022/07/09 06:04:55;;;;;;;17.33;12.60;;;21.10;99.90;;;;;;5052634;28;20203;-70
2022/07/09 06:07:21;;;;;;;12.23;11.13;;;21.10;99.90;;;;;;5053919;28;20186;-70
2022/07/09 06:09:47;;;;;;;12.10;11.10;;;21.30;99.90;;;;;;5054155;28;20174;-70
2022/07/09 06:12:12;;;;;;;12.50;11.30;;;21.40;99.90;;;;;;5053752;28;20262;-70
2022/07/09 06:14:38;;;;;;;11.25;10.13;;;21.40;99.90;;;;;;5053816;28;20282;-70
2022/07/09 06:17:07;;;;;;;12.30;11.02;;;21.50;99.90;;;;;;5053877;28;20175;-70
2022/07/09 06:19:34;;;;;;;11.32;10.25;;;21.50;99.90;;;;;;5053893;28;20200;-70
2022/07/09 06:22:00;;;;;;;11.30;10.10;;;21.80;99.90;;;;;;5053741;28;20178;-70
2022/07/09 06:24:25;;;;;;;11.77;10.27;;;21.90;99.90;;;;;;5053210;28;20278;-70
2022/07/09 06:26:51;;;;;;;10.65;9.65;;;22.10;99.90;;;;;;5053730;28;20209;-70
2022/07/09 06:29:17;;;;;;;10.70;9.25;;;22.30;99.90;;;;;;5052583;28;20205;-70
2022/07/09 06:31:42;;;;;;;10.23;7.90;;;22.60;99.90;;;;;;5053585;28;20659;-70
2022/07/09 06:34:08;;;;;;;10.50;9.52;;;22.90;99.90;;;;;;5052552;28;20214;-69
2022/07/09 06:36:33;;;;;;;12.05;9.70;;;23.20;99.90;;;;;;5053288;28;20210;-69
2022/07/09 06:41:43;;;;;;;10.40;8.65;;;23.30;99.90;;;;;;5053639;28;20567;-70
2022/07/09 06:44:09;;;;;;;8.10;7.40;;;23.50;99.90;;;;;;5051611;28;20203;-70
2022/07/09 06:46:35;;;;;;;11.05;6.32;;;23.60;99.90;;;;;;5053099;28;20182;-70
2022/07/09 06:49:01;;;;;;;4.47;4.13;;;23.80;99.90;;;;;;5053391;28;20174;-69
2022/07/09 06:51:26;;;;;;;4.45;4.10;;;23.90;99.90;;;;;;5053121;28;20253;-69
2022/07/09 06:53:52;;;;;;;4.95;4.50;;;24.10;99.90;;;;;;5052995;28;20664;-69
2022/07/09 06:56:17;;;;;;;5.95;5.05;;;23.90;99.90;;;;;;5052972;28;20244;-70
2022/07/09 06:58:43;;;;;;;7.15;5.22;;;24.20;99.90;;;;;;5053247;28;20171;-69
2022/07/09 07:01:09;;;;;;;4.30;4.10;;;24.30;99.90;;;;;;5052770;28;20239;-69
2022/07/09 07:03:34;;;;;;;3.92;3.72;;;24.30;99.90;;;;;;5051849;28;20206;-69
2022/07/09 07:06:00;;;;;;;6.85;4.32;;;24.50;99.90;;;;;;5050367;28;20175;-69
2022/07/09 07:08:25;;;;;;;5.60;3.90;;;24.50;99.90;;;;;;5053005;28;20182;-70
2022/07/09 07:10:51;;;;;;;3.65;3.33;;;24.70;99.90;;;;;;5051026;28;20652;-69
2022/07/09 07:13:17;;;;;;;3.78;3.40;;;25.10;99.90;;;;;;5052814;28;20248;-70
2022/07/09 07:15:44;;;;;;;3.83;3.53;;;25.50;99.90;;;;;;5052733;28;20657;-70
2022/07/09 07:18:10;;;;;;;4.60;3.80;;;25.90;99.90;;;;;;5052835;28;20537;-70
2022/07/09 07:20:35;;;;;;;3.95;3.67;;;26.20;99.90;;;;;;5052653;28;20186;-69
2022/07/09 07:23:01;;;;;;;4.80;4.40;;;25.90;99.90;;;;;;5052667;28;20248;-70
2022/07/09 07:25:26;;;;;;;4.60;4.20;;;26.00;99.90;;;;;;5050707;28;20617;-70
2022/07/09 07:27:52;;;;;;;5.40;3.90;;;26.30;99.90;;;;;;5052805;28;20578;-70
2022/07/09 07:30:18;;;;;;;4.43;4.05;;;;;;;;;;5052614;28;20182;-69
2022/07/09 07:32:44;;;;;;;4.70;4.15;;;;;;;;;;5052703;28;20602;-69
2022/07/09 07:35:10;;;;;;;4.85;4.15;;;26.30;99.90;;;;;;5051480;28;20252;-70
2022/07/09 07:37:36;;;;;;;4.90;4.28;;;;;;;;;;5052527;28;20250;-70
2022/07/09 07:40:02;;;;;;;4.53;4.13;;;;;;;;;;5051289;28;20175;-70
2022/07/09 07:42:28;;;;;;;4.35;3.97;;;;;;;;;;5049076;28;20213;-71
2022/07/09 07:44:54;;;;;;;3.55;3.35;;;;;;;;;;5052438;28;20467;-69
2022/07/09 07:47:20;;;;;;;4.80;3.90;;;;;;;;;;5052325;28;20178;-70
2022/07/09 07:49:45;;;;;;;3.95;3.60;;;27.00;99.90;;;;;;5051053;28;20210;-69
2022/07/09 07:52:12;;;;;;;3.95;3.70;;;;;;;;;;5051903;28;20228;-69
2022/07/09 07:54:38;;;;;;;11.40;4.72;;;;;;;;;;5051849;28;20681;-70
2022/07/09 07:57:04;;;;;;;4.43;3.80;;;26.20;99.90;;;;;;5052141;28;20254;-70
2022/07/09 07:59:30;;;;;;;4.50;4.05;;;;;;;;;;5054610;28;20185;-70
2022/07/09 08:01:55;;;;;;;4.18;3.83;;;26.60;99.90;;;;;;5053833;28;20179;-71
2022/07/09 08:04:21;;;;;;;3.55;3.25;;;27.20;99.90;;;;;;5052756;28;20232;-71
2022/07/09 08:06:47;;;;;;;4.35;4.05;;;27.40;99.90;;;;;;5052202;28;20537;-70
2022/07/09 08:09:12;;;;;;;3.95;3.65;;;27.60;99.90;;;;;;5052586;28;20185;-70
2022/07/09 08:11:38;;;;;;;4.07;3.70;;;27.60;99.90;;;;;;5054114;28;20174;-70
2022/07/09 08:14:05;;;;;;;4.47;4.10;;;27.20;99.90;;;;;;5051213;28;20199;-70
2022/07/09 08:16:30;;;;;;;4.43;3.63;;;27.20;99.90;;;;;;5054705;28;20191;-70
2022/07/09 08:18:56;;;;;;;4.82;4.10;;;26.80;99.90;;;;;;5053624;28;20186;-70
2022/07/09 08:21:21;;;;;;;5.05;4.70;;;26.50;99.90;;;;;;5050377;28;20175;-69
2022/07/09 08:23:56;;;;;;;4.82;4.47;;;25.90;99.90;;;;;;5049988;28;20221;-70
2022/07/09 08:26:24;;;;;;;4.85;4.47;;;25.60;99.90;;;;;;5053087;28;20174;-70
2022/07/09 08:28:51;;;;;;;4.75;4.43;;;25.70;99.90;;;;;;5051663;28;20624;-69
2022/07/09 08:31:18;;;;;;;4.53;4.20;;;26.10;99.90;;;;;;5051350;28;20206;-69
2022/07/09 08:33:44;;;;;;;3.70;3.50;;;26.40;99.90;;;;;;5051177;28;20631;-69
2022/07/09 08:36:09;;;;;;;3.80;3.60;;;26.90;99.90;;;;;;5049282;28;20266;-70
2022/07/09 08:38:35;;;;;;;3.83;3.60;;;26.90;99.90;;;;;;5049788;28;20171;-70
2022/07/09 08:41:03;;;;;;;3.72;3.33;;;27.10;99.90;;;;;;5051294;28;20451;-70
2022/07/09 08:43:32;;;;;;;3.55;3.35;;;27.70;99.90;;;;;;5051078;28;20684;-70
2022/07/09 08:45:58;;;;;;;4.22;4.00;;;28.30;99.90;;;;;;5047946;28;20281;-69
2022/07/09 08:48:23;;;;;;;5.05;4.45;;;28.60;99.90;;;;;;5051267;28;20254;-70
2022/07/09 08:50:50;;;;;;;3.55;3.33;;;28.40;99.90;;;;;;5051141;28;20217;-70
2022/07/09 08:53:19;;;;;;;3.92;3.72;;;28.40;99.90;;;;;;5050593;28;20949;-69
2022/07/09 08:55:46;;;;;;;4.18;3.67;;;28.10;99.90;;;;;;5051080;28;20205;-69
2022/07/09 08:58:14;;;;;;;3.75;3.45;;;27.90;99.90;;;;;;5050958;28;20206;-69
2022/07/09 09:00:41;;;;;;;3.67;3.38;;;27.70;99.90;;;;;;5051099;28;20166;-69
2022/07/09 09:03:07;;;;;;;3.78;3.47;;;27.80;99.90;;;;;;5050523;28;20213;-70
2022/07/09 09:05:33;;;;;;;3.65;3.45;;;28.30;99.90;;;;;;5051222;28;20163;-70
2022/07/09 09:07:59;;;;;;;4.25;3.85;;;28.40;99.90;;;;;;5051113;28;20163;-70
2022/07/09 09:10:27;;;;;;;3.78;3.47;;;28.40;99.90;;;;;;5049842;28;20935;-70
2022/07/09 09:13:00;;;;;;;4.95;3.67;;;28.60;99.90;;;;;;5050549;28;20190;-70
2022/07/09 09:15:27;;;;;;;3.90;3.58;;;28.60;99.90;;;;;;5050793;28;20178;-69
2022/07/09 09:17:53;;;;;;;3.30;3.10;;;28.70;99.90;;;;;;5048323;28;20179;-70
2022/07/09 09:20:19;;;;;;;3.92;3.58;;;28.60;99.90;;;;;;5048954;28;20193;-70
2022/07/09 09:22:47;;;;;;;3.58;2.90;;;28.70;99.90;;;;;;5050615;28;20699;-70
2022/07/09 09:25:20;;;;;;;2.92;2.72;;;28.90;99.90;;;;;;5049301;28;20198;-70
2022/07/09 09:27:53;;;;;;;3.60;3.33;;;29.30;99.90;;;;;;5050999;28;20197;-70
2022/07/09 09:30:19;;;;;;;3.53;3.22;;;29.20;99.90;;;;;;5050946;28;20167;-70
2022/07/09 09:32:53;;;;;;;3.88;3.65;;;29.40;99.90;;;;;;5051224;28;20213;-71
2022/07/09 09:35:19;;;;;;;3.13;2.92;;;29.60;99.90;;;;;;5050802;28;20553;-70
2022/07/09 09:37:45;;;;;;;2.92;2.70;;;29.80;99.90;;;;;;5050747;28;20179;-70
2022/07/09 09:40:11;;;;;;;3.15;2.95;;;30.60;99.90;;;;;;5050444;28;20187;-70
2022/07/09 09:42:44;;;;;;;2.95;2.75;;;31.40;99.90;;;;;;5051013;28;20742;-71
2022/07/09 09:45:13;;;;;;;3.78;2.60;;;31.70;99.90;;;;;;5050083;28;20559;-71
2022/07/09 09:47:39;;;;;;;3.47;2.92;;;31.90;99.90;;;;;;5050979;28;20182;-71
2022/07/09 09:50:05;;;;;;;3.03;2.83;;;32.00;99.90;;;;;;5054224;28;20539;-71
2022/07/09 09:52:33;;;;;;;3.10;2.90;;;31.40;99.90;;;;;;5054601;28;20309;-69
2022/07/09 09:55:01;;;;;;;3.80;3.38;;;30.50;99.90;;;;;;5053750;28;20332;-70
2022/07/09 09:57:27;;;;;;;3.65;3.20;;;29.70;99.90;;;;;;5053874;28;20194;-69
2022/07/09 09:59:54;;;;;;;4.55;3.50;;;29.20;99.90;;;;;;5054335;28;20644;-71
2022/07/09 10:02:20;;;;;;;3.70;3.50;;;28.40;99.90;;;;;;5054071;28;20178;-70
2022/07/09 10:04:46;;;;;;;3.75;3.55;;;28.20;99.90;;;;;;5053699;28;20213;-70
2022/07/09 10:07:14;;;;;;;4.18;3.88;;;28.10;99.90;;;;;;5054342;28;20612;-70
2022/07/09 10:09:40;;;;;;;3.10;2.90;;;28.20;99.90;;;;;;5054131;28;20705;-70
2022/07/09 10:12:08;;;;;;;3.72;3.50;;;27.90;99.90;;;;;;5053889;28;20637;-70
2022/07/09 10:14:36;;;;;;;4.13;3.40;;;27.90;99.90;;;;;;5052255;28;20559;-70
2022/07/09 10:17:15;;;;;;;3.63;3.42;;;28.30;99.90;;;;;;5053270;28;20167;-69
2022/07/09 10:20:04;;;;;;;3.63;3.42;;;28.60;99.90;;;;;;5034283;28;20539;-70
2022/07/09 10:22:46;;;;;;;3.80;3.60;;;28.70;99.90;;;;;;5045129;28;20208;-70
2022/07/09 10:25:22;;;;;;;3.60;3.40;;;28.50;99.90;;;;;;5052134;28;20195;-70
2022/07/09 10:27:48;;;;;;;3.92;3.63;;;28.30;99.90;;;;;;5053768;28;20173;-70
2022/07/09 10:30:23;;;;;;;3.55;3.30;;;28.50;99.90;;;;;;5053824;28;20186;-70
2022/07/09 10:33:02;;;;;;;4.35;3.75;;;28.80;99.90;;;;;;5053238;28;20174;-69
2022/07/09 10:35:28;;;;;;;3.30;3.20;;;29.00;99.90;;;;;;5095144;22;20510;-68
2022/07/09 10:37:54;;;;;;;4.00;3.60;;;29.10;99.90;;;;;;5073468;28;20252;-66
2022/07/09 10:40:21;;;;;;;4.15;3.85;;;29.10;99.90;;;;;;5073537;28;20627;-65
2022/07/09 10:43:02;;;;;;;3.63;3.42;;;28.90;99.90;;;;;;5073638;28;20212;-67
2022/07/09 10:45:39;;;;;;;3.60;3.28;;;29.00;99.90;;;;;;5073152;28;20182;-66
2022/07/09 10:48:06;;;;;;;3.40;3.20;;;29.20;99.90;;;;;;5060578;28;20175;-66
2022/07/09 10:50:37;;;;;;;3.25;3.05;;;29.50;99.90;;;;;;5053511;28;20175;-67
2022/07/09 10:53:03;;;;;;;3.75;3.55;;;29.90;99.90;;;;;;5055610;28;20627;-66
2022/07/09 10:55:29;;;;;;;3.38;3.08;;;30.10;99.90;;;;;;5055407;28;20559;-65
2022/07/09 10:57:55;;;;;;;3.58;3.38;;;29.90;99.90;;;;;;5064905;28;20529;-66
2022/07/09 11:00:26;;;;;;;3.88;3.58;;;29.50;99.90;;;;;;5061742;28;20186;-65
2022/07/09 11:02:54;;;;;;;3.67;3.25;;;29.00;99.90;;;;;;5059364;28;20198;-66
2022/07/09 11:05:20;;;;;;;3.40;3.10;;;28.30;99.90;;;;;;5066221;28;20587;-65
2022/07/09 11:08:06;;;;;;;3.35;3.08;;;28.00;99.90;;;;;;5073289;28;20175;-66
2022/07/09 11:10:37;;;;;;;4.45;4.15;;;27.50;99.90;;;;;;5073157;28;20580;-66
2022/07/09 11:13:06;;;;;;;3.75;3.55;;;27.20;99.90;;;;;;5072978;28;20170;-66
2022/07/09 11:15:35;;;;;;;3.58;3.38;;;27.20;99.90;;;;;;5072717;28;20692;-66
2022/07/09 11:18:13;;;;;;;3.50;3.30;;;27.70;99.90;;;;;;5072369;28;20189;-66
2022/07/09 11:20:44;;;;;;;3.70;3.50;;;28.50;99.90;;;;;;5073002;28;20194;-65
2022/07/09 11:23:14;;;;;;;3.60;2.90;;;28.90;99.90;;;;;;5072661;28;20554;-66
2022/07/09 11:25:41;;;;;;;4.28;3.97;;;28.40;99.90;;;;;;5072395;28;20674;-65
2022/07/09 11:28:06;;;;;;;4.00;3.80;;;27.80;99.90;;;;;;5070892;28;20178;-65
2022/07/09 11:30:32;;;;;;;5.28;3.90;;;27.20;99.90;;;;;;5073095;28;20164;-65
2022/07/09 11:32:59;;;;;;;4.35;3.95;;;27.10;99.90;;;;;;5072568;28;20178;-65
2022/07/09 11:35:35;;;;;;;4.22;3.92;;;26.90;99.90;;;;;;5072288;28;20578;-66
2022/07/09 11:38:06;;;;;;;3.90;3.60;;;26.70;99.90;;;;;;5055638;28;20179;-66
2022/07/09 11:40:32;;;;;;;3.78;3.58;;;26.90;99.90;;;;;;5052711;28;20258;-66
2022/07/09 11:42:58;;;;;;;4.75;4.45;;;26.90;99.90;;;;;;5052311;28;20234;-65
2022/07/09 11:45:26;;;;;;;4.20;3.80;;;27.10;99.90;;;;;;5052217;28;20222;-65
2022/07/09 11:48:06;;;;;;;5.78;3.85;;;27.50;99.90;;;;;;5052516;28;20628;-66
2022/07/09 11:50:33;;;;;;;4.60;4.20;;;28.00;99.90;;;;;;5052461;28;20174;-66
2022/07/09 11:52:58;;;;;;;4.80;4.40;;;28.20;99.90;;;;;;5052215;28;20332;-66
2022/07/09 11:55:31;;;;;;;4.20;3.88;;;27.90;99.90;;;;;;5051914;28;20567;-65
2022/07/09 11:57:59;;;;;;;4.78;4.45;;;27.60;99.90;;;;;;5053457;28;20182;-66
2022/07/09 12:00:28;;;;;;;4.43;4.13;;;27.50;99.90;;;;;;5072252;28;20525;-66
2022/07/09 12:02:55;;;;;;;6.20;4.13;;;27.70;99.90;;;;;;5071987;28;20590;-66
2022/07/09 12:05:33;;;;;;;4.35;4.05;;;27.80;99.90;;;;;;5071644;28;20189;-66
2022/07/09 12:08:01;;;;;;;4.65;4.35;;;27.80;99.90;;;;;;5072043;28;20177;-66
2022/07/09 12:10:32;;;;;;;4.50;4.10;;;27.90;99.90;;;;;;5072057;28;20543;-66
2022/07/09 12:12:58;;;;;;;4.13;3.83;;;27.60;99.90;;;;;;5071732;28;20170;-66
2022/07/09 12:15:24;;;;;;;6.82;4.28;;;27.40;99.90;;;;;;5071413;28;20205;-65
2022/07/09 12:17:54;;;;;;;4.60;4.30;;;27.10;99.90;;;;;;5071908;28;20175;-65
2022/07/09 12:20:21;;;;;;;4.85;4.28;;;26.70;99.90;;;;;;5071764;28;20201;-66
2022/07/09 12:22:47;;;;;;;4.88;4.57;;;26.50;99.90;;;;;;5071727;28;20667;-66
2022/07/09 12:25:13;;;;;;;4.80;4.50;;;26.10;99.90;;;;;;5071550;28;20644;-65
2022/07/09 12:27:39;;;;;;;5.90;4.97;;;25.90;99.90;;;;;;5071707;28;20178;-65
2022/07/09 12:30:05;;;;;;;4.65;4.35;;;26.20;99.90;;;;;;5069682;28;20205;-66
2022/07/09 12:32:31;;;;;;;4.43;4.13;;;26.20;99.90;;;;;;5071727;28;20693;-66
2022/07/09 12:34:56;;;;;;;5.50;4.95;;;26.30;99.90;;;;;;5071299;28;20352;-66
2022/07/09 12:37:22;;;;;;;4.75;4.35;;;26.40;99.90;;;;;;5071616;28;20166;-66
2022/07/09 12:39:49;;;;;;;5.13;4.70;;;26.20;99.90;;;;;;5071613;28;20623;-66
2022/07/09 12:42:15;;;;;;;5.05;4.50;;;26.00;99.90;;;;;;5071386;28;20566;-66